Time;durP1;ratioP1;P1;durP2;ratioP2;P2;SDS_P1;SDS_P2;PMS_P1;PMS_P2;Temp;Humidity;BMP_temperature;BMP_pressure;BME280_temperature;BME280_humidity;BME280_pressure;Samples;Min_cycle;Max_cycle;Signal;HPM_P1;HPM_P2
2022/02/05 00:00:31;;;;;;;;;;;6.10;99.90;;;3.75;100.00;100484.22;5048833;28;20352;-83
2022/02/05 00:03:10;;;;;;;;;;;6.10;99.90;;;3.71;100.00;100488.16;5069028;28;19972;-83
2022/02/05 00:05:44;;;;;;;;;;;6.10;99.90;;;3.73;100.00;100486.19;5067144;28;19944;-83
2022/02/05 00:08:25;;;;;;;;;;;6.10;99.90;;;3.70;100.00;100487.31;5057752;28;19981;-82
2022/02/05 00:41:26;;;;;;;;;;;5.80;99.90;;;3.31;100.00;100538.38;5061014;28;19990;-82
2022/02/05 00:43:54;;;;;;;;;;;5.70;99.90;;;3.33;100.00;100543.59;5062231;28;20006;-83
2022/02/05 00:46:24;;;;;;;;;;;5.70;99.90;;;3.25;100.00;100543.44;5050892;28;19978;-82
2022/02/05 00:48:51;;;;;;;;;;;5.70;99.90;;;3.23;100.00;100545.44;5059232;28;19929;-83
2022/02/05 00:51:23;;;;;;;;;;;5.70;99.90;;;3.30;100.00;100549.28;5072103;28;19968;-82
2022/02/05 00:54:01;;;;;;;;;;;5.70;99.90;;;3.36;100.00;100543.34;5064863;28;20011;-82
2022/02/05 00:56:49;;;;;;;;;;;5.70;99.90;;;3.41;100.00;100551.88;5050785;28;19979;-83
2022/02/05 00:59:18;;;;;;;;;;;5.70;99.90;;;3.32;100.00;100555.38;5061486;28;20319;-82
2022/02/05 01:01:49;;;;;;;;;;;5.70;99.90;;;3.29;100.00;100545.75;5071996;28;20023;-83
2022/02/05 01:04:16;;;;;;;;;;;5.70;99.90;;;3.29;100.00;100553.81;5066800;28;20065;-83
2022/02/05 01:06:43;;;;;;;;;;;5.70;99.90;;;3.25;100.00;100556.91;5072008;28;19963;-83
2022/02/05 01:09:16;;;;;;;;;;;5.60;99.90;;;3.27;100.00;100563.00;5059134;28;19932;-82
2022/02/05 01:11:44;;;;;;;;;;;5.60;99.90;;;3.17;100.00;100568.34;5071014;28;19937;-83
2022/02/05 01:14:15;;;;;;;;;;;5.60;99.90;;;3.14;100.00;100565.91;5071206;28;20391;-82
2022/02/05 01:16:51;;;;;;;;;;;5.60;99.90;;;3.09;100.00;100578.94;5071611;28;20197;-83
2022/02/05 01:19:39;;;;;;;;;;;5.60;99.90;;;3.15;100.00;100581.06;5070677;28;20017;-83
2022/02/05 01:22:09;;;;;;;;;;;5.50;99.90;;;3.11;100.00;100577.78;5071118;28;19974;-82
2022/02/05 01:24:37;;;;;;;;;;;5.50;99.90;;;3.12;100.00;100589.38;5056839;28;19929;-82
2022/02/05 01:27:10;;;;;;;;;;;5.50;99.90;;;3.09;100.00;100600.44;5059731;28;19989;-83
2022/02/05 01:29:53;;;;;;;;;;;5.50;99.90;;;3.02;100.00;100605.47;5071265;28;19933;-82
2022/02/05 01:32:24;;;;;;;;;;;5.50;99.90;;;3.08;100.00;100604.94;5067481;28;19928;-82
2022/02/05 01:34:59;;;;;;;;;;;5.40;99.90;;;2.96;100.00;100605.19;5071545;28;19925;-82
2022/02/05 01:51:44;;;;;;;;;;;5.40;99.90;;;3.04;100.00;100622.31;4987330;28;19926;-82
2022/02/05 01:54:33;;;;;;;;;;;5.40;99.90;;;3.07;100.00;100627.44;4988972;28;19925;-83
2022/02/05 01:57:04;;;;;;;;;;;5.40;99.90;;;3.02;100.00;100629.69;5033239;28;20408;-82
2022/02/05 01:59:49;;;;;;;;;;;5.40;99.90;;;3.05;100.00;100626.72;5049149;28;19925;-82
2022/02/05 02:05:04;;;;;;;;;;;5.30;99.90;;;3.07;100.00;100629.28;5050800;28;19929;-83
2022/02/05 02:13:23;;;;;;;;;;;5.30;99.90;;;2.99;100.00;100640.72;5028868;28;19968;-82
2022/02/05 02:16:02;;;;;;;;;;;5.30;99.90;;;2.99;100.00;100629.09;5061745;28;19929;-82
2022/02/05 02:18:40;;;;;;;;;;;5.30;99.90;;;2.91;100.00;100638.69;5070034;28;19939;-82
2022/02/05 02:21:18;;;;;;;;;;;5.30;99.90;;;2.92;100.00;100636.84;5070538;28;19963;-82
2022/02/05 02:23:59;;;;;;;;;;;5.30;99.90;;;2.88;100.00;100638.09;5064655;28;19940;-83
2022/02/05 02:26:37;;;;;;;;;;;5.20;99.90;;;2.91;100.00;100643.19;5050426;28;19928;-82
2022/02/05 02:29:08;;;;;;;;;;;5.30;99.90;;;2.88;100.00;100652.38;5050104;28;19924;-82
2022/02/05 02:31:39;;;;;;;;;;;5.20;99.90;;;2.78;100.00;100640.72;5050462;28;19928;-82
2022/02/05 02:34:10;;;;;;;;;;;5.20;99.90;;;2.84;100.00;100645.56;5067823;28;20355;-81
2022/02/05 02:36:43;;;;;;;;;;;5.20;99.90;;;2.91;100.00;100645.88;5061302;28;20041;-82
2022/02/05 02:39:15;;;;;;;;;;;5.20;99.90;;;2.89;100.00;100647.84;5051000;28;19928;-82
2022/02/05 02:41:47;;;;;;;;;;;5.20;99.90;;;2.89;100.00;100653.22;5058776;28;19998;-82
2022/02/05 02:44:15;;;;;;;;;;;5.20;99.90;;;2.79;100.00;100655.84;5070085;28;19924;-82
2022/02/05 02:46:42;;;;;;;;;;;5.20;99.90;;;2.79;100.00;100665.75;5061489;28;20414;-82
2022/02/05 02:49:13;;;;;;;;;;;5.20;99.90;;;2.83;100.00;100659.97;5049659;28;19932;-82
2022/02/05 02:57:17;;;;;;;;;;;5.10;99.90;;;2.77;100.00;100670.41;5063965;28;19981;-82
2022/02/05 02:59:57;;;;;;;;;;;5.10;99.90;;;2.81;100.00;100667.31;5069520;28;19936;-82
2022/02/05 03:02:26;;;;;;;;;;;5.20;99.90;;;2.83;100.00;100669.88;5066426;28;20653;-82
2022/02/05 03:04:54;;;;;;;;;;;5.10;99.90;;;2.82;100.00;100669.03;5069592;28;20307;-82
2022/02/05 03:07:22;;;;;;;;;;;5.20;99.90;;;2.81;100.00;100677.22;5058097;28;20312;-83
2022/02/05 03:09:51;;;;;;;;;;;5.10;99.90;;;2.81;100.00;100671.84;5049490;28;19935;-83
2022/02/05 03:12:19;;;;;;;;;;;5.20;99.90;;;2.89;100.00;100672.03;5059615;28;19932;-82
2022/02/05 03:14:46;;;;;;;;;;;5.10;99.90;;;2.92;100.00;100678.00;5069683;28;20406;-82
2022/02/05 03:17:17;;;;;;;;;;;5.20;99.90;;;2.94;100.00;100672.50;5060033;28;19935;-83
2022/02/05 03:19:46;;;;;;;;;;;5.20;99.90;;;2.94;100.00;100673.34;5047915;28;20296;-83
2022/02/05 03:22:15;;;;;;;;;;;5.20;99.90;;;2.97;100.00;100688.38;5057928;28;20466;-82
2022/02/05 03:24:45;;;;;;;;;;;5.20;99.90;;;2.98;100.00;100684.69;5079738;23;20027;-89
2022/02/05 03:27:15;;;;;;;;;;;5.20;99.90;;;2.98;100.00;100686.53;5064877;28;20342;-89
2022/02/05 03:29:47;;;;;;;;;;;5.30;99.90;;;3.02;100.00;100694.19;5063044;28;19925;-88
2022/02/05 03:32:15;;;;;;;;;;;5.30;99.90;;;2.93;100.00;100689.59;5064995;28;20358;-88
2022/02/05 03:34:42;;;;;;;;;;;5.30;99.90;;;2.93;100.00;100697.66;5089538;28;19928;-88
2022/02/05 03:37:09;;;;;;;;;;;5.30;99.90;;;2.89;100.00;100712.34;5082838;28;19934;-89
2022/02/05 03:39:36;;;;;;;;;;;5.30;99.90;;;2.88;100.00;100710.66;5069138;28;19943;-88
2022/02/05 03:42:04;;;;;;;;;;;5.20;99.90;;;2.84;100.00;100710.06;5072937;28;20339;-89
2022/02/05 03:44:33;;;;;;;;;;;5.30;99.90;;;2.80;100.00;100707.75;5089241;28;19928;-89
2022/02/05 03:47:00;;;;;;;;;;;5.20;99.90;;;2.82;100.00;100705.78;5085132;28;19928;-88
2022/02/05 03:49:27;;;;;;;;;;;5.20;99.90;;;2.93;100.00;100716.47;5068921;28;19964;-88
2022/02/05 03:51:55;;;;;;;;;;;5.20;99.90;;;2.96;100.00;100705.47;5069480;28;19929;-89
2022/02/05 03:54:25;;;;;;;;;;;5.20;99.90;;;2.98;100.00;100716.97;5062910;28;19936;-87
2022/02/05 03:56:52;;;;;;;;;;;5.30;99.90;;;2.99;100.00;100712.44;5059816;28;19935;-88
2022/02/05 03:59:19;;;;;;;;;;;5.30;99.90;;;3.06;100.00;100719.00;5089228;28;19950;-89
2022/02/05 04:01:48;;;;;;;;;;;5.30;99.90;;;3.08;100.00;100728.63;5082738;28;19929;-90
2022/02/05 04:04:15;;;;;;;;;;;5.30;99.90;;;3.13;100.00;100723.72;5088018;28;20327;-88
2022/02/05 04:06:42;;;;;;;;;;;5.40;99.90;;;3.08;100.00;100728.63;5086206;28;19932;-88
2022/02/05 04:09:17;;;;;;;;;;;5.40;99.90;;;3.10;100.00;100732.06;5067689;28;20022;-88
2022/02/05 04:11:57;;;;;;;;;;;5.40;99.90;;;3.24;100.00;100727.34;5067480;28;19928;-90
2022/02/05 04:17:12;;;;;;;;;;;5.50;99.90;;;3.15;100.00;100728.13;5068870;28;20350;-89
2022/02/05 04:19:40;;;;;;;;;;;5.40;99.90;;;3.18;100.00;100722.47;5068502;28;19932;-89
2022/02/05 04:22:08;;;;;;;;;;;5.40;99.90;;;3.22;100.00;100721.22;5063424;28;20210;-89
2022/02/05 04:24:35;;;;;;;;;;;5.50;99.90;;;3.22;100.00;100731.97;5064936;28;19976;-88
2022/02/05 04:27:02;;;;;;;;;;;5.40;99.90;;;3.12;100.00;100734.59;5072706;28;19951;-88
2022/02/05 04:29:29;;;;;;;;;;;5.50;99.90;;;3.17;100.00;100745.81;5088690;28;19928;-89
2022/02/05 04:31:56;;;;;;;;;;;5.50;99.90;;;3.10;100.00;100742.81;5087271;28;19928;-89
2022/02/05 04:34:25;;;;;;;;;;;5.50;99.90;;;3.22;100.00;100745.41;5087464;28;19959;-87
2022/02/05 04:36:54;;;;;;;;;;;5.50;99.90;;;3.30;100.00;100742.94;5087300;28;19935;-88
2022/02/05 04:39:22;;;;;;;;;;;5.50;99.90;;;3.24;100.00;100741.63;5068432;28;19928;-88
2022/02/05 04:41:53;;;;;;;;;;;5.50;99.90;;;3.24;100.00;100743.47;5076697;28;19990;-89
2022/02/05 04:44:43;;;;;;;;;;;5.50;99.90;;;3.21;100.00;100741.88;5088801;28;19928;-89
2022/02/05 04:47:37;;;;;;;;;;;5.50;99.90;;;3.26;100.00;100741.50;5078131;28;19928;-87
2022/02/05 04:50:21;;;;;;;;;;;5.50;99.90;;;3.31;100.00;100747.31;5069464;28;19936;-88
2022/02/05 04:53:07;;;;;;;;;;;5.50;99.90;;;3.38;100.00;100750.34;5073884;28;20011;-90
2022/02/05 04:56:13;;;;;;;;;;;5.60;99.90;;;3.37;100.00;100757.56;5069199;28;19936;-88
2022/02/05 04:59:10;;;;;;;;;;;5.60;99.90;;;3.35;100.00;100755.97;5056725;28;20677;-89
2022/02/05 05:01:50;;;;;;;;;;;5.60;99.90;;;3.36;100.00;100766.63;5066948;28;19943;-89
2022/02/05 05:04:29;;;;;;;;;;;5.60;99.90;;;3.39;100.00;100769.06;5072053;28;19928;-89
2022/02/05 05:09:54;;;;;;;;;;;5.60;99.90;;;3.39;100.00;100773.56;5090133;28;19939;-88
2022/02/05 05:12:30;;;;;;;;;;;5.60;99.90;;;3.36;100.00;100777.38;5067854;28;19925;-89
2022/02/05 05:20:38;;;;;;;;;;;5.60;99.90;;;3.16;100.00;100788.97;5064481;28;19935;-89
2022/02/05 05:23:07;;;;;;;;;;;5.50;99.90;;;3.12;100.00;100786.56;5071566;28;19962;-90
2022/02/05 05:25:34;;;;;;;;;;;5.50;99.90;;;3.02;100.00;100782.06;5073009;28;20407;-88
2022/02/05 05:28:02;;;;;;;;;;;5.50;99.90;;;2.96;100.00;100794.19;5063177;28;20392;-88
2022/02/05 05:30:29;;;;;;;;;;;5.40;99.90;;;2.95;100.00;100813.97;5070011;28;20019;-89
2022/02/05 05:32:58;;;;;;;;;;;5.40;99.90;;;2.92;100.00;100807.03;5081920;28;19988;-89
2022/02/05 05:35:25;;;;;;;;;;;5.30;99.90;;;3.00;100.00;100805.56;5089616;28;19935;-89
2022/02/05 05:37:53;;;;;;;;;;;5.40;99.90;;;2.96;100.00;100815.69;5070363;28;20385;-89
2022/02/05 05:40:21;;;;;;;;;;;5.30;99.90;;;2.97;100.00;100822.81;5069638;28;20023;-88
2022/02/05 05:42:54;;;;;;;;;;;5.30;99.90;;;2.90;100.00;100835.03;5061695;28;20323;-89
2022/02/05 05:45:36;;;;;;;;;;;5.30;99.90;;;2.89;100.00;100814.50;5071437;28;19950;-88
2022/02/05 05:48:09;;;;;;;;;;;5.20;99.90;;;2.96;100.00;100826.47;5051184;28;19986;-88
2022/02/05 05:53:17;;;;;;;;;;;5.30;99.90;;;3.05;100.00;100822.16;5077980;28;20038;-88
2022/02/05 05:55:46;;;;;;;;;;;5.30;99.90;;;3.03;100.00;100826.81;5088927;28;19928;-89
2022/02/05 05:58:14;;;;;;;;;;;5.30;99.90;;;3.02;100.00;100830.47;5069478;28;20018;-89
2022/02/05 06:00:42;;;;;;;;;;;5.30;99.90;;;2.94;100.00;100829.28;5075074;28;20111;-89
2022/02/05 06:03:09;;;;;;;;;;;5.30;99.90;;;2.99;100.00;100841.47;5091157;28;19931;-89
2022/02/05 06:05:36;;;;;;;;;;;5.30;99.90;;;3.05;100.00;100836.44;5087534;28;19940;-88
2022/02/05 06:08:06;;;;;;;;;;;5.40;99.90;;;3.04;100.00;100836.56;5084981;28;19943;-89
2022/02/05 06:10:34;;;;;;;;;;;5.30;99.90;;;3.09;100.00;100848.66;5088584;28;19968;-88
2022/02/05 06:13:02;;;;;;;;;;;5.30;99.90;;;3.17;100.00;100850.69;5070569;28;19928;-89
2022/02/05 06:15:29;;;;;;;;;;;5.40;99.90;;;3.13;100.00;100850.09;5070612;28;20010;-88
2022/02/05 06:17:56;;;;;;;;;;;5.40;99.90;;;3.24;100.00;100857.28;5090877;28;19932;-89
2022/02/05 06:20:24;;;;;;;;;;;5.40;99.90;;;3.15;100.00;100852.66;5090490;28;20031;-88
2022/02/05 06:22:51;;;;;;;;;;;5.40;99.90;;;3.11;100.00;100861.97;5070343;28;20407;-88
2022/02/05 06:25:18;;;;;;;;;;;5.40;99.90;;;3.13;100.00;100862.69;5068600;28;19936;-89
2022/02/05 06:27:45;;;;;;;;;;;5.40;99.90;;;3.08;100.00;100863.06;5088189;28;20023;-90
2022/02/05 06:30:14;;;;;;;;;;;5.40;99.90;;;3.09;100.00;100875.53;5090355;28;19928;-88
2022/02/05 06:32:42;;;;;;;;;;;5.40;99.90;;;3.15;100.00;100868.81;5087511;28;19928;-89
2022/02/05 06:35:10;;;;;;;;;;;5.50;99.90;;;3.24;100.00;100872.56;5090468;28;19928;-88
2022/02/05 06:37:37;;;;;;;;;;;5.50;99.90;;;3.26;100.00;100870.59;5072163;28;20019;-89
2022/02/05 06:40:06;;;;;;;;;;;5.50;99.90;;;3.28;100.00;100863.25;5068515;28;19925;-90
2022/02/05 06:42:33;;;;;;;;;;;5.50;99.90;;;3.30;100.00;100877.44;5070249;28;19935;-91
2022/02/05 06:45:00;;;;;;;;;;;5.50;99.90;;;3.28;100.00;100876.72;5077590;28;19924;-85
2022/02/05 06:47:28;;;;;;;;;;;5.50;99.90;;;3.29;100.00;100881.97;5090497;28;19932;-84
2022/02/05 06:49:55;;;;;;;;;;;5.50;99.90;;;3.36;100.00;100874.22;5085747;28;19985;-84
2022/02/05 06:52:22;;;;;;;;;;;5.50;99.90;;;3.26;100.00;100878.66;5069797;28;20014;-84
2022/02/05 06:54:50;;;;;;;;;;;5.50;99.90;;;3.26;100.00;100882.22;5070260;28;19934;-83
2022/02/05 06:57:17;;;;;;;;;;;5.50;99.90;;;3.32;100.00;100883.53;5064319;28;19929;-83
2022/02/05 06:59:44;;;;;;;;;;;5.50;99.90;;;3.27;100.00;100893.81;5071432;28;19928;-83
2022/02/05 07:02:11;;;;;;;;;;;5.50;99.90;;;3.24;100.00;100889.56;5069822;28;20024;-84
2022/02/05 07:04:41;;;;;;;;;;;5.60;99.90;;;3.27;100.00;100880.38;5077636;28;20391;-84
2022/02/05 07:07:08;;;;;;;;;;;5.60;99.90;;;3.32;100.00;100892.44;5088643;28;19983;-84
2022/02/05 07:09:37;;;;;;;;;;;5.60;99.90;;;3.38;100.00;100899.16;5087857;28;19925;-86
2022/02/05 07:12:05;;;;;;;;;;;5.50;99.90;;;3.35;100.00;100891.34;5089910;28;19932;-85
2022/02/05 07:14:36;;;;;;;;;;;5.60;99.90;;;3.35;100.00;100896.75;5081916;28;20399;-84
2022/02/05 07:17:10;;;;;;;;;;;5.60;99.90;;;3.37;100.00;100902.84;5070264;28;19929;-89
2022/02/05 07:19:50;;;;;;;;;;;5.60;99.90;;;3.36;100.00;100887.66;5076193;28;19932;-84
2022/02/05 07:22:18;;;;;;;;;;;5.60;99.90;;;3.33;100.00;100886.09;5089793;28;20020;-84
2022/02/05 07:29:12;;;;;;;;;;;5.60;99.90;;;3.37;100.00;100896.59;5086741;28;20050;-84
2022/02/05 07:30:32;;;;;;;;;;;5.60;99.90;;;3.38;100.00;100912.59;5087783;28;20019;-84
2022/02/05 07:32:59;;;;;;;;;;;5.60;99.90;;;3.44;100.00;100911.22;5089649;28;19928;-84
2022/02/05 07:35:27;;;;;;;;;;;5.60;99.90;;;3.40;100.00;100905.25;5085577;28;20035;-85
2022/02/05 07:37:57;;;;;;;;;;;5.60;99.90;;;3.35;100.00;100917.38;5089631;28;19928;-82
2022/02/05 07:40:24;;;;;;;;;;;5.60;99.90;;;3.32;100.00;100907.75;5077377;28;19928;-81
2022/02/05 07:42:51;;;;;;;;;;;5.60;99.90;;;3.26;100.00;100925.25;5069332;28;19925;-81
2022/02/05 07:45:19;;;;;;;;;;;5.60;99.90;;;3.32;100.00;100931.94;5073269;28;19928;-82
2022/02/05 07:47:47;;;;;;;;;;;5.60;99.90;;;3.37;100.00;100921.66;5068611;28;20295;-82
2022/02/05 07:50:14;;;;;;;;;;;5.60;99.90;;;3.38;100.00;100928.75;5078026;28;20459;-81
2022/02/05 07:52:41;;;;;;;;;;;5.60;99.90;;;3.36;100.00;100938.78;5087499;28;20450;-81
2022/02/05 07:55:10;;;;;;;;;;;5.60;99.90;;;3.40;100.00;100945.59;5089357;28;19935;-81
2022/02/05 07:57:37;;;;;;;;;;;5.60;99.90;;;3.41;100.00;100946.47;5087640;28;20018;-82
2022/02/05 08:00:05;;;;;;;;;;;5.60;99.90;;;3.28;100.00;100950.19;5077316;28;19935;-82
2022/02/05 08:02:42;;;;;;;;;;;5.60;99.90;;;3.28;100.00;100944.78;5075891;28;19932;-82
2022/02/05 08:05:10;;;;;;;;;;;5.60;99.90;;;3.27;100.00;100947.59;5089372;28;19959;-81
2022/02/05 08:07:37;;;;;;;;;;;5.60;99.90;;;3.29;100.00;100954.59;5086533;28;19934;-81
2022/02/05 08:10:07;;;;;;;;;;;5.60;99.90;;;3.24;100.00;100946.03;5068887;28;19928;-82
2022/02/05 08:12:39;;;;;;;;;;;5.60;99.90;;;3.16;100.00;100944.94;5069033;28;19935;-81
2022/02/05 08:15:07;;;;;;;;;;;5.60;99.90;;;3.28;100.00;100949.34;5068644;28;19948;-81
2022/02/05 08:17:36;;;;;;;;;;;5.60;99.90;;;3.23;100.00;100957.75;5080542;28;19935;-81
2022/02/05 08:20:07;;;;;;;;;;;5.60;99.90;;;3.22;100.00;100955.19;5088691;28;20026;-82
2022/02/05 08:22:34;;;;;;;;;;;5.60;99.90;;;3.29;100.00;100954.59;5070081;28;19928;-81
2022/02/05 08:25:01;;;;;;;;;;;5.60;99.90;;;3.28;100.00;100960.09;5068666;28;19928;-81
2022/02/05 08:27:28;;;;;;;;;;;5.60;99.90;;;3.21;100.00;100948.97;5085956;28;20512;-82
2022/02/05 08:29:59;;;;;;;;;;;5.60;99.90;;;3.27;100.00;100963.75;5088643;28;19970;-82
2022/02/05 08:32:27;;;;;;;;;;;5.60;99.90;;;3.39;100.00;100965.44;5079583;28;19928;-83
2022/02/05 08:34:56;;;;;;;;;;;5.60;99.90;;;3.44;100.00;100970.44;5092888;28;19975;-82
2022/02/05 08:37:23;;;;;;;;;;;5.60;99.90;;;3.57;100.00;100981.88;5077155;28;20343;-82
2022/02/05 08:39:50;;;;;;;;;;;5.70;99.90;;;3.72;100.00;100980.59;5072381;28;20319;-83
2022/02/05 08:42:17;;;;;;;;;;;5.70;99.90;;;3.88;100.00;100974.78;5086636;28;19928;-83
2022/02/05 08:44:44;;;;;;;;;;;5.80;99.90;;;3.91;100.00;100971.81;5092845;28;19936;-84
2022/02/05 08:47:13;;;;;;;;;;;5.90;99.90;;;3.85;100.00;100963.44;5086158;28;19936;-84
2022/02/05 08:49:40;;;;;;;;;;;5.90;99.90;;;3.82;100.00;100964.53;5072055;28;20455;-84
2022/02/05 08:52:10;;;;;;;;;;;5.90;99.90;;;3.81;100.00;100956.56;5083521;28;19924;-84
2022/02/05 08:54:37;;;;;;;;;;;5.90;99.90;;;3.87;100.00;100967.69;5092219;28;20388;-84
2022/02/05 08:57:05;;;;;;;;;;;5.90;99.90;;;3.87;100.00;100965.00;5090442;28;19934;-84
2022/02/05 08:59:43;;;;;;;;;;;6.00;99.90;;;3.90;100.00;100975.50;5090339;28;19928;-84
2022/02/05 09:02:15;;;;;;;;;;;5.90;99.90;;;3.92;100.00;100975.34;5051990;28;19937;-84
2022/02/05 09:04:52;;;;;;;;;;;6.00;99.90;;;3.89;100.00;100960.31;5069556;28;19935;-84
2022/02/05 09:07:19;;;;;;;;;;;5.90;99.90;;;3.94;100.00;100964.47;5065824;28;19924;-84
2022/02/05 09:10:01;;;;;;;;;;;6.00;99.90;;;3.91;100.00;100963.75;5056102;28;19928;-85
2022/02/05 09:12:56;;;;;;;;;;;6.00;99.90;;;3.91;100.00;100969.13;5066483;28;20383;-83
2022/02/05 09:15:19;;;;;;;;;;;6.00;99.90;;;3.91;100.00;100965.59;5069644;28;19935;-82
2022/02/05 09:17:46;;;;;;;;;;;6.00;99.90;;;4.01;100.00;100976.44;5068051;28;19929;-85
2022/02/05 09:20:14;;;;;;;;;;;6.10;99.90;;;4.10;100.00;100967.56;5077865;28;19929;-85
2022/02/05 09:22:41;;;;;;;;;;;6.10;99.90;;;4.23;100.00;100956.59;5066563;28;19964;-88
2022/02/05 09:25:09;;;;;;;;;;;6.20;99.90;;;4.27;100.00;100955.34;5102376;22;19935;-86
2022/02/05 09:27:40;;;;;;;;;;;6.20;99.90;;;4.22;100.00;100961.09;5089754;28;20380;-86
2022/02/05 09:30:14;;;;;;;;;;;6.20;99.90;;;4.22;100.00;100966.50;5084660;28;20031;-86
2022/02/05 09:32:41;;;;;;;;;;;6.20;99.90;;;4.19;100.00;100961.41;5081669;28;19978;-88
2022/02/05 09:35:09;;;;;;;;;;;6.30;99.90;;;4.25;100.00;100971.63;5060814;28;20020;-87
2022/02/05 09:37:37;;;;;;;;;;;6.30;99.90;;;4.30;100.00;100966.72;5060959;28;20399;-89
2022/02/05 09:40:06;;;;;;;;;;;6.30;99.90;;;4.50;100.00;100973.03;5054351;28;19936;-87
2022/02/05 09:42:33;;;;;;;;;;;6.40;99.90;;;4.69;100.00;100977.69;5069037;28;19928;-90
2022/02/05 09:45:01;;;;;;;;;;;6.50;99.90;;;4.84;100.00;100980.88;5065791;28;19936;-90
2022/02/05 09:47:28;;;;;;;;;;;6.70;99.90;;;4.89;100.00;100983.13;5060070;28;19928;-91
2022/02/05 09:49:56;;;;;;;;;;;6.60;99.90;;;4.99;100.00;100984.06;5067920;28;19929;-89
2022/02/05 09:52:25;;;;;;;;;;;6.70;99.90;;;5.06;100.00;100987.91;5056378;28;19936;-90
2022/02/05 09:54:54;;;;;;;;;;;6.70;99.90;;;5.07;100.00;100986.91;5067818;28;19939;-91
2022/02/05 09:57:21;;;;;;;;;;;6.80;99.90;;;5.04;100.00;100984.47;5065549;28;19936;-91
2022/02/05 09:59:54;;;;;;;;;;;6.80;99.90;;;5.08;100.00;100991.31;5068562;28;20276;-91
2022/02/05 10:02:29;;;;;;;;;;;6.80;99.90;;;5.03;100.00;100990.03;5070094;28;19941;-89
2022/02/05 10:05:01;;;;;;;;;;;6.90;99.90;;;5.00;100.00;100988.44;5060937;28;19925;-88
2022/02/05 10:07:28;;;;;;;;;;;6.90;99.90;;;5.04;100.00;100989.88;5064415;28;20027;-89
2022/02/05 10:10:02;;;;;;;;;;;6.90;99.90;;;5.09;100.00;100987.63;5085570;28;20380;-91
2022/02/05 10:12:29;;;;;;;;;;;6.90;99.90;;;5.02;100.00;100986.47;5069845;28;19963;-90
2022/02/05 10:15:01;;;;;;;;;;;7.00;99.90;;;5.03;100.00;100987.34;5065944;28;20023;-90
2022/02/05 10:17:39;;;;;;;;;;;6.90;99.90;;;5.00;100.00;100987.59;5063684;28;20462;-89
2022/02/05 10:20:07;;;;;;;;;;;7.00;99.90;;;4.99;100.00;100991.25;5064874;28;20037;-87
2022/02/05 10:22:36;;;;;;;;;;;6.90;99.90;;;5.05;100.00;100993.44;5070555;28;19929;-88
2022/02/05 10:25:16;;;;;;;;;;;7.00;99.90;;;5.07;100.00;100997.69;5065414;28;19928;-88
2022/02/05 10:27:45;;;;;;;;;;;6.90;99.90;;;5.07;100.00;100995.00;5082650;28;20020;-85
2022/02/05 10:30:18;;;;;;;;;;;6.90;99.90;;;5.14;100.00;100998.03;5059322;28;19932;-91
2022/02/05 10:32:49;;;;;;;;;;;7.00;99.90;;;5.18;100.00;100996.75;5062442;28;19928;-87
2022/02/05 10:35:22;;;;;;;;;;;7.00;99.90;;;5.19;100.00;100997.59;5066238;28;19928;-87
2022/02/05 10:37:55;;;;;;;;;;;7.00;99.90;;;5.15;100.00;100996.16;5057195;28;19928;-87
2022/02/05 10:40:29;;;;;;;;;;;7.10;99.90;;;5.18;100.00;100987.78;5063850;28;19932;-86
2022/02/05 10:43:03;;;;;;;;;;;7.10;99.90;;;5.25;100.00;100999.72;5057722;28;20046;-87
2022/02/05 10:45:49;;;;;;;;;;;7.10;99.90;;;5.30;100.00;101000.19;5059955;28;19929;-87
2022/02/05 10:48:17;;;;;;;;;;;7.10;99.90;;;5.53;100.00;100990.00;5060453;28;20305;-87
2022/02/05 10:50:45;;;;;;;;;;;7.20;99.90;;;5.66;100.00;100984.31;5060960;28;20394;-87
2022/02/05 10:53:21;;;;;;;;;;;7.30;99.90;;;5.76;100.00;100981.63;5078238;28;19929;-89
2022/02/05 10:56:01;;;;;;;;;;;7.30;99.90;;;5.67;100.00;100970.69;5067443;28;20031;-88
2022/02/05 10:58:44;;;;;;;;;;;7.40;99.90;;;5.67;100.00;100976.09;5061184;28;19932;-87
2022/02/05 11:07:04;;;;;;;;;;;7.40;99.90;;;5.78;100.00;100977.78;5062396;28;20043;-88
2022/02/05 11:09:32;;;;;;;;;;;7.50;99.90;;;5.81;100.00;100972.09;5061496;28;19932;-87
2022/02/05 11:20:14;;;;;;;;;;;7.70;99.90;;;6.22;99.24;100970.09;5074726;28;19929;-88
2022/02/05 11:22:45;;;;;;;;;;;7.80;99.90;;;6.21;99.68;100968.41;5060661;28;20461;-88
2022/02/05 11:25:13;;;;;;;;;;;7.80;99.90;;;6.26;100.00;100966.13;5077381;28;20387;-84
2022/02/05 11:27:45;;;;;;;;;;;7.90;99.90;;;6.34;99.26;100959.97;5058520;28;19928;-84
2022/02/05 11:30:32;;;;;;;;;;;7.90;99.90;;;6.46;99.28;100960.66;5060958;28;20469;-86
2022/02/05 11:33:04;;;;;;;;;;;7.90;99.90;;;6.57;98.66;100962.34;5067323;28;19982;-86
2022/02/05 11:35:42;;;;;;;;;;;8.00;99.90;;;6.54;97.67;100949.09;5062836;28;19939;-86
2022/02/05 11:38:09;;;;;;;;;;;8.10;99.90;;;6.36;96.92;100962.50;5068791;28;19928;-86
2022/02/05 11:40:47;;;;;;;;;;;8.10;99.90;;;6.36;97.10;100963.41;5060476;28;19935;-86
2022/02/05 11:43:21;;;;;;;;;;;8.10;99.90;;;6.34;97.63;100953.69;5065130;28;19947;-85
2022/02/05 11:46:13;;;;;;;;;;;8.10;99.90;;;6.29;97.27;100958.72;5067356;28;20597;-86
2022/02/05 11:48:54;;;;;;;;;;;8.10;99.90;;;6.31;96.57;100970.22;5080732;28;20027;-86
2022/02/05 11:51:24;;;;;;;;;;;8.00;99.90;;;6.16;94.91;100964.44;5049150;28;19933;-85
2022/02/05 11:54:15;;;;;;;;;;;8.00;99.90;;;6.12;95.89;100963.84;5069080;28;19964;-86
2022/02/05 11:56:50;;;;;;;;;;;8.00;99.90;;;6.09;96.61;100961.44;5065822;28;19932;-86
2022/02/05 11:59:20;;;;;;;;;;;8.00;99.90;;;6.03;96.28;100964.72;5058861;28;19944;-85
2022/02/05 12:01:47;;;;;;;;;;;7.90;99.90;;;6.06;96.15;100965.28;5063557;28;19928;-86
2022/02/05 12:04:17;;;;;;;;;;;7.90;99.90;;;6.11;96.43;100964.88;5056292;28;20478;-86
2022/02/05 12:06:50;;;;;;;;;;;7.90;99.90;;;6.13;95.63;100960.19;5059770;28;19924;-86
2022/02/05 12:09:37;;;;;;;;;;;7.90;99.90;;;6.22;96.44;100964.69;5066175;28;19985;-86
2022/02/05 12:12:45;;;;;;;;;;;7.90;99.90;;;6.18;95.02;100957.03;5069471;28;20335;-86
2022/02/05 12:15:23;;;;;;;;;;;8.00;99.90;;;6.16;94.29;100964.44;5061053;28;19933;-86
2022/02/05 12:18:12;;;;;;;;;;;7.90;99.90;;;6.18;95.19;100947.06;5070338;28;19928;-86
2022/02/05 12:21:13;;;;;;;;;;;7.90;99.90;;;6.11;93.59;100954.06;5052850;28;20019;-86
2022/02/05 12:27:01;;;;;;;;;;;8.00;99.90;;;6.26;93.93;100939.09;5079346;28;19932;-86
2022/02/05 12:29:33;;;;;;;;;;;8.00;99.90;;;6.23;93.46;100939.38;5072428;28;19960;-86
2022/02/05 12:32:02;;;;;;;;;;;8.00;99.90;;;6.26;94.40;100949.91;5070770;28;19932;-86
2022/02/05 12:34:38;;;;;;;;;;;8.00;99.90;;;6.30;93.18;100949.59;5072569;28;20352;-86
2022/02/05 12:37:06;;;;;;;;;;;8.00;98.90;;;6.30;93.02;100947.72;5072156;28;19928;-86
2022/02/05 12:39:35;;;;;;;;;;;8.00;99.90;;;6.24;94.02;100940.22;5071666;28;20462;-86
2022/02/05 12:42:07;;;;;;;;;;;8.00;99.90;;;6.20;93.66;100934.25;5068760;28;20116;-86
2022/02/05 12:44:37;;;;;;;;;;;8.00;99.90;;;6.29;92.74;100920.88;5067470;28;20427;-87
2022/02/05 12:47:11;;;;;;;;;;;8.10;99.90;;;6.25;91.53;100920.31;5072269;28;20356;-87
2022/02/05 12:49:46;;;;;;;;;;;8.10;99.30;;;6.25;92.37;100931.13;5052177;28;20035;-87
2022/02/05 12:52:13;;;;;;;;;;;8.10;99.40;;;6.24;92.79;100924.88;5058020;28;19968;-87
2022/02/05 12:54:51;;;;;;;;;;;8.10;99.70;;;6.32;92.90;100925.97;5072308;28;19924;-86
2022/02/05 12:57:20;;;;;;;;;;;8.10;99.60;;;6.34;91.81;100919.44;5068844;28;19970;-86
2022/02/05 12:59:47;;;;;;;;;;;8.10;98.90;;;6.41;90.17;100925.09;5068279;28;20023;-86
2022/02/05 13:02:17;;;;;;;;;;;8.10;99.20;;;6.44;91.29;100920.25;5064918;28;20051;-86
2022/02/05 13:04:48;;;;;;;;;;;8.10;98.90;;;6.52;89.95;100910.56;5069415;28;19964;-87
2022/02/05 13:07:18;;;;;;;;;;;8.20;98.30;;;6.57;88.09;100908.25;5071361;28;19929;-87
2022/02/05 13:09:48;;;;;;;;;;;8.20;97.50;;;6.55;88.10;100908.41;5086291;28;19924;-86
2022/02/05 13:12:17;;;;;;;;;;;8.20;96.40;;;6.54;87.75;100912.09;5071593;28;19968;-87